sensor_id;sensor_type;location;lat;lon;timestamp;P1;durP1;ratioP1;P2;durP2;ratioP2
9461;SDS011;4769;42.660;23.262;2023-04-01T00:01:07;9.32;;;5.45;;
9461;SDS011;4769;42.660;23.262;2023-04-01T00:03:37;9.38;;;5.00;;
9461;SDS011;4769;42.660;23.262;2023-04-01T00:06:03;9.50;;;4.38;;
9461;SDS011;4769;42.660;23.262;2023-04-01T00:08:29;7.63;;;4.50;;
9461;SDS011;4769;42.660;23.262;2023-04-01T00:10:54;8.88;;;5.03;;
9461;SDS011;4769;42.660;23.262;2023-04-01T00:13:21;10.13;;;6.50;;
9461;SDS011;4769;42.660;23.262;2023-04-01T00:15:46;12.23;;;7.18;;
9461;SDS011;4769;42.660;23.262;2023-04-01T00:18:12;16.70;;;9.80;;
9461;SDS011;4769;42.660;23.262;2023-04-01T00:20:42;20.90;;;9.95;;
9461;SDS011;4769;42.660;23.262;2023-04-01T00:23:08;17.30;;;11.10;;
9461;SDS011;4769;42.660;23.262;2023-04-01T00:25:34;18.48;;;11.13;;
9461;SDS011;4769;42.660;23.262;2023-04-01T00:28:00;15.60;;;11.30;;
9461;SDS011;4769;42.660;23.262;2023-04-01T00:30:25;13.77;;;9.85;;
9461;SDS011;4769;42.660;23.262;2023-04-01T00:32:51;17.30;;;9.82;;
9461;SDS011;4769;42.660;23.262;2023-04-01T00:35:17;14.82;;;9.57;;
9461;SDS011;4769;42.660;23.262;2023-04-01T00:37:46;24.77;;;12.00;;
9461;SDS011;4769;42.660;23.262;2023-04-01T00:40:22;21.10;;;12.60;;
9461;SDS011;4769;42.660;23.262;2023-04-01T00:42:50;23.30;;;14.45;;
9461;SDS011;4769;42.660;23.262;2023-04-01T00:45:27;21.60;;;15.82;;
9461;SDS011;4769;42.660;23.262;2023-04-01T00:47:55;25.40;;;15.93;;
9461;SDS011;4769;42.660;23.262;2023-04-01T00:50:21;26.85;;;15.57;;
9461;SDS011;4769;42.660;23.262;2023-04-01T00:52:52;26.23;;;14.77;;
9461;SDS011;4769;42.660;23.262;2023-04-01T00:55:18;21.75;;;14.65;;
9461;SDS011;4769;42.660;23.262;2023-04-01T00:57:46;22.50;;;14.20;;
9461;SDS011;4769;42.660;23.262;2023-04-01T01:00:14;22.90;;;13.15;;
9461;SDS011;4769;42.660;23.262;2023-04-01T01:02:42;19.38;;;12.60;;
9461;SDS011;4769;42.660;23.262;2023-04-01T01:05:11;17.83;;;11.37;;
9461;SDS011;4769;42.660;23.262;2023-04-01T01:07:39;19.07;;;10.03;;
9461;SDS011;4769;42.660;23.262;2023-04-01T01:10:16;20.90;;;10.97;;
9461;SDS011;4769;42.660;23.262;2023-04-01T01:12:45;16.60;;;9.75;;
9461;SDS011;4769;42.660;23.262;2023-04-01T01:15:17;14.83;;;9.87;;
9461;SDS011;4769;42.660;23.262;2023-04-01T01:17:48;14.90;;;9.97;;
9461;SDS011;4769;42.660;23.262;2023-04-01T01:23:29;11.93;;;9.17;;
9461;SDS011;4769;42.660;23.262;2023-04-01T01:29:24;12.27;;;7.18;;
9461;SDS011;4769;42.660;23.262;2023-04-01T01:32:09;11.80;;;7.67;;
9461;SDS011;4769;42.660;23.262;2023-04-01T01:34:44;14.73;;;7.17;;
9461;SDS011;4769;42.660;23.262;2023-04-01T01:37:22;11.65;;;6.10;;
9461;SDS011;4769;42.660;23.262;2023-04-01T01:39:50;7.00;;;5.63;;
9461;SDS011;4769;42.660;23.262;2023-04-01T01:42:20;8.27;;;4.93;;
9461;SDS011;4769;42.660;23.262;2023-04-01T01:44:49;8.43;;;5.20;;
9461;SDS011;4769;42.660;23.262;2023-04-01T01:47:17;12.10;;;6.00;;
9461;SDS011;4769;42.660;23.262;2023-04-01T01:49:45;12.67;;;5.93;;
9461;SDS011;4769;42.660;23.262;2023-04-01T01:52:11;6.97;;;4.53;;
9461;SDS011;4769;42.660;23.262;2023-04-01T01:54:49;7.60;;;5.07;;
9461;SDS011;4769;42.660;23.262;2023-04-01T01:57:14;9.10;;;5.60;;
9461;SDS011;4769;42.660;23.262;2023-04-01T01:59:42;13.30;;;5.80;;
9461;SDS011;4769;42.660;23.262;2023-04-01T02:02:10;8.87;;;5.67;;
9461;SDS011;4769;42.660;23.262;2023-04-01T02:04:40;12.73;;;5.97;;
9461;SDS011;4769;42.660;23.262;2023-04-01T02:07:10;10.43;;;5.87;;
9461;SDS011;4769;42.660;23.262;2023-04-01T02:09:40;10.73;;;5.82;;
9461;SDS011;4769;42.660;23.262;2023-04-01T02:12:09;9.53;;;5.43;;
9461;SDS011;4769;42.660;23.262;2023-04-01T02:14:39;8.93;;;5.10;;
9461;SDS011;4769;42.660;23.262;2023-04-01T02:17:09;11.73;;;5.17;;
9461;SDS011;4769;42.660;23.262;2023-04-01T02:19:38;7.37;;;5.43;;
9461;SDS011;4769;42.660;23.262;2023-04-01T02:22:07;8.87;;;5.30;;
9461;SDS011;4769;42.660;23.262;2023-04-01T02:24:36;7.78;;;5.60;;
9461;SDS011;4769;42.660;23.262;2023-04-01T02:27:05;9.37;;;5.13;;
9461;SDS011;4769;42.660;23.262;2023-04-01T02:29:33;8.83;;;5.37;;
9461;SDS011;4769;42.660;23.262;2023-04-01T02:31:59;9.50;;;5.67;;
9461;SDS011;4769;42.660;23.262;2023-04-01T02:34:26;12.32;;;5.35;;
9461;SDS011;4769;42.660;23.262;2023-04-01T02:36:52;7.93;;;5.20;;
9461;SDS011;4769;42.660;23.262;2023-04-01T02:39:20;13.17;;;6.30;;
9461;SDS011;4769;42.660;23.262;2023-04-01T02:41:48;10.17;;;5.87;;
9461;SDS011;4769;42.660;23.262;2023-04-01T02:44:14;9.40;;;4.77;;
9461;SDS011;4769;42.660;23.262;2023-04-01T02:46:43;8.70;;;6.37;;
9461;SDS011;4769;42.660;23.262;2023-04-01T02:49:09;10.43;;;5.50;;
9461;SDS011;4769;42.660;23.262;2023-04-01T02:51:35;10.03;;;5.33;;
9461;SDS011;4769;42.660;23.262;2023-04-01T02:54:01;9.67;;;5.20;;
9461;SDS011;4769;42.660;23.262;2023-04-01T02:56:26;11.67;;;5.60;;
9461;SDS011;4769;42.660;23.262;2023-04-01T02:58:52;8.20;;;5.23;;
9461;SDS011;4769;42.660;23.262;2023-04-01T03:01:18;9.43;;;5.40;;
9461;SDS011;4769;42.660;23.262;2023-04-01T03:03:47;8.13;;;5.03;;
9461;SDS011;4769;42.660;23.262;2023-04-01T03:06:14;11.23;;;4.70;;
9461;SDS011;4769;42.660;23.262;2023-04-01T03:08:41;9.53;;;5.30;;
9461;SDS011;4769;42.660;23.262;2023-04-01T03:11:07;12.13;;;5.53;;
9461;SDS011;4769;42.660;23.262;2023-04-01T03:13:33;9.73;;;5.70;;
9461;SDS011;4769;42.660;23.262;2023-04-01T03:15:59;10.20;;;5.60;;
9461;SDS011;4769;42.660;23.262;2023-04-01T03:18:25;11.93;;;6.10;;
9461;SDS011;4769;42.660;23.262;2023-04-01T03:20:53;11.63;;;5.93;;
9461;SDS011;4769;42.660;23.262;2023-04-01T03:23:19;10.60;;;4.77;;
9461;SDS011;4769;42.660;23.262;2023-04-01T03:25:45;10.20;;;4.67;;
9461;SDS011;4769;42.660;23.262;2023-04-01T03:28:11;5.77;;;2.87;;
9461;SDS011;4769;42.660;23.262;2023-04-01T03:30:36;4.93;;;3.00;;
9461;SDS011;4769;42.660;23.262;2023-04-01T03:33:02;4.67;;;2.33;;
9461;SDS011;4769;42.660;23.262;2023-04-01T03:35:28;6.27;;;2.50;;
9461;SDS011;4769;42.660;23.262;2023-04-01T03:37:56;4.80;;;2.20;;
9461;SDS011;4769;42.660;23.262;2023-04-01T03:40:22;7.13;;;2.40;;
9461;SDS011;4769;42.660;23.262;2023-04-01T03:42:48;8.10;;;2.80;;
9461;SDS011;4769;42.660;23.262;2023-04-01T03:45:14;3.80;;;2.60;;
9461;SDS011;4769;42.660;23.262;2023-04-01T03:47:40;5.60;;;2.40;;
9461;SDS011;4769;42.660;23.262;2023-04-01T03:50:06;7.80;;;2.60;;
9461;SDS011;4769;42.660;23.262;2023-04-01T03:52:33;7.32;;;2.72;;
9461;SDS011;4769;42.660;23.262;2023-04-01T03:55:01;6.00;;;2.97;;
9461;SDS011;4769;42.660;23.262;2023-04-01T03:57:27;5.97;;;3.40;;
9461;SDS011;4769;42.660;23.262;2023-04-01T03:59:53;11.17;;;4.47;;
9461;SDS011;4769;42.660;23.262;2023-04-01T04:02:19;11.37;;;4.63;;
9461;SDS011;4769;42.660;23.262;2023-04-01T04:04:45;8.00;;;4.30;;
9461;SDS011;4769;42.660;23.262;2023-04-01T04:07:10;9.43;;;4.47;;
9461;SDS011;4769;42.660;23.262;2023-04-01T04:09:36;9.77;;;4.30;;
9461;SDS011;4769;42.660;23.262;2023-04-01T04:12:05;11.30;;;4.20;;
9461;SDS011;4769;42.660;23.262;2023-04-01T04:14:31;5.43;;;3.63;;
9461;SDS011;4769;42.660;23.262;2023-04-01T04:16:57;10.07;;;4.00;;
9461;SDS011;4769;42.660;23.262;2023-04-01T04:19:23;9.83;;;3.50;;
9461;SDS011;4769;42.660;23.262;2023-04-01T04:21:48;7.87;;;3.77;;
9461;SDS011;4769;42.660;23.262;2023-04-01T04:24:14;6.40;;;3.50;;
9461;SDS011;4769;42.660;23.262;2023-04-01T04:26:40;11.67;;;4.93;;
9461;SDS011;4769;42.660;23.262;2023-04-01T04:29:08;8.17;;;5.07;;
9461;SDS011;4769;42.660;23.262;2023-04-01T04:31:34;8.57;;;4.80;;
9461;SDS011;4769;42.660;23.262;2023-04-01T04:34:00;10.40;;;6.17;;
9461;SDS011;4769;42.660;23.262;2023-04-01T04:36:26;8.07;;;5.50;;
9461;SDS011;4769;42.660;23.262;2023-04-01T04:38:52;7.73;;;5.67;;
9461;SDS011;4769;42.660;23.262;2023-04-01T04:41:18;11.30;;;5.70;;
9461;SDS011;4769;42.660;23.262;2023-04-01T04:43:48;9.90;;;6.63;;
9461;SDS011;4769;42.660;23.262;2023-04-01T04:46:20;9.83;;;5.83;;
9461;SDS011;4769;42.660;23.262;2023-04-01T04:48:46;13.23;;;7.63;;
9461;SDS011;4769;42.660;23.262;2023-04-01T04:51:13;12.33;;;6.53;;
9461;SDS011;4769;42.660;23.262;2023-04-01T04:53:39;10.93;;;7.73;;
9461;SDS011;4769;42.660;23.262;2023-04-01T04:56:05;11.73;;;7.50;;
9461;SDS011;4769;42.660;23.262;2023-04-01T04:58:31;15.37;;;7.10;;
9461;SDS011;4769;42.660;23.262;2023-04-01T05:00:57;16.23;;;7.97;;
9461;SDS011;4769;42.660;23.262;2023-04-01T05:03:25;11.67;;;7.30;;
9461;SDS011;4769;42.660;23.262;2023-04-01T05:05:52;10.93;;;7.60;;
9461;SDS011;4769;42.660;23.262;2023-04-01T05:08:19;15.13;;;7.97;;
9461;SDS011;4769;42.660;23.262;2023-04-01T05:10:45;14.93;;;8.10;;
9461;SDS011;4769;42.660;23.262;2023-04-01T05:13:11;10.40;;;7.20;;
9461;SDS011;4769;42.660;23.262;2023-04-01T05:15:37;12.53;;;6.73;;
9461;SDS011;4769;42.660;23.262;2023-04-01T05:18:03;9.10;;;5.87;;
9461;SDS011;4769;42.660;23.262;2023-04-01T05:20:32;7.43;;;5.67;;
9461;SDS011;4769;42.660;23.262;2023-04-01T05:22:58;12.90;;;6.47;;
9461;SDS011;4769;42.660;23.262;2023-04-01T05:25:25;12.20;;;7.00;;
9461;SDS011;4769;42.660;23.262;2023-04-01T05:27:51;11.87;;;6.70;;
9461;SDS011;4769;42.660;23.262;2023-04-01T05:30:17;12.63;;;6.60;;
9461;SDS011;4769;42.660;23.262;2023-04-01T05:32:43;9.43;;;6.33;;
9461;SDS011;4769;42.660;23.262;2023-04-01T05:35:09;14.43;;;7.40;;
9461;SDS011;4769;42.660;23.262;2023-04-01T05:37:37;13.17;;;8.30;;
9461;SDS011;4769;42.660;23.262;2023-04-01T05:40:04;13.33;;;7.47;;
9461;SDS011;4769;42.660;23.262;2023-04-01T05:42:30;14.43;;;8.03;;
9461;SDS011;4769;42.660;23.262;2023-04-01T05:44:57;15.00;;;8.83;;
9461;SDS011;4769;42.660;23.262;2023-04-01T05:47:22;13.17;;;8.50;;
9461;SDS011;4769;42.660;23.262;2023-04-01T05:49:48;16.38;;;8.45;;
9461;SDS011;4769;42.660;23.262;2023-04-01T05:52:14;17.83;;;11.27;;
9461;SDS011;4769;42.660;23.262;2023-04-01T05:54:42;18.98;;;9.63;;
9461;SDS011;4769;42.660;23.262;2023-04-01T05:57:08;13.80;;;7.85;;
9461;SDS011;4769;42.660;23.262;2023-04-01T05:59:34;13.38;;;7.95;;
9461;SDS011;4769;42.660;23.262;2023-04-01T06:02:00;19.45;;;8.05;;
9461;SDS011;4769;42.660;23.262;2023-04-01T06:04:26;14.70;;;6.53;;
9461;SDS011;4769;42.660;23.262;2023-04-01T06:06:57;12.52;;;6.53;;
9461;SDS011;4769;42.660;23.262;2023-04-01T06:09:24;13.00;;;6.78;;
9461;SDS011;4769;42.660;23.262;2023-04-01T06:12:00;13.63;;;6.93;;
9461;SDS011;4769;42.660;23.262;2023-04-01T06:14:41;11.35;;;7.30;;
9461;SDS011;4769;42.660;23.262;2023-04-01T06:17:21;18.13;;;7.03;;
9461;SDS011;4769;42.660;23.262;2023-04-01T06:20:10;10.63;;;6.03;;
9461;SDS011;4769;42.660;23.262;2023-04-01T06:22:46;11.13;;;6.80;;
9461;SDS011;4769;42.660;23.262;2023-04-01T06:25:29;14.93;;;6.10;;
9461;SDS011;4769;42.660;23.262;2023-04-01T06:28:34;9.40;;;5.95;;
9461;SDS011;4769;42.660;23.262;2023-04-01T06:31:20;16.65;;;7.40;;
9461;SDS011;4769;42.660;23.262;2023-04-01T06:34:03;16.13;;;8.40;;
9461;SDS011;4769;42.660;23.262;2023-04-01T06:37:03;22.35;;;9.35;;
9461;SDS011;4769;42.660;23.262;2023-04-01T06:39:53;12.77;;;7.20;;
9461;SDS011;4769;42.660;23.262;2023-04-01T06:42:43;18.25;;;7.30;;
9461;SDS011;4769;42.660;23.262;2023-04-01T06:45:28;13.85;;;6.20;;
9461;SDS011;4769;42.660;23.262;2023-04-01T06:48:05;18.10;;;6.78;;
9461;SDS011;4769;42.660;23.262;2023-04-01T06:50:51;11.30;;;6.35;;
9461;SDS011;4769;42.660;23.262;2023-04-01T06:53:23;11.32;;;6.35;;
9461;SDS011;4769;42.660;23.262;2023-04-01T06:56:05;15.68;;;6.93;;
9461;SDS011;4769;42.660;23.262;2023-04-01T06:58:34;11.77;;;6.07;;
9461;SDS011;4769;42.660;23.262;2023-04-01T07:01:08;12.13;;;6.32;;
9461;SDS011;4769;42.660;23.262;2023-04-01T07:03:43;13.45;;;5.97;;
9461;SDS011;4769;42.660;23.262;2023-04-01T07:06:14;13.20;;;6.07;;
9461;SDS011;4769;42.660;23.262;2023-04-01T07:08:49;22.90;;;6.78;;
9461;SDS011;4769;42.660;23.262;2023-04-01T07:11:18;10.93;;;6.00;;
9461;SDS011;4769;42.660;23.262;2023-04-01T07:13:49;18.55;;;7.05;;
9461;SDS011;4769;42.660;23.262;2023-04-01T07:16:24;12.07;;;5.60;;
9461;SDS011;4769;42.660;23.262;2023-04-01T07:18:56;13.80;;;6.50;;
9461;SDS011;4769;42.660;23.262;2023-04-01T07:21:27;12.65;;;6.13;;
9461;SDS011;4769;42.660;23.262;2023-04-01T07:23:59;9.65;;;5.70;;
9461;SDS011;4769;42.660;23.262;2023-04-01T07:26:29;9.90;;;5.47;;
9461;SDS011;4769;42.660;23.262;2023-04-01T07:28:55;12.50;;;5.95;;
9461;SDS011;4769;42.660;23.262;2023-04-01T07:31:29;19.80;;;6.70;;
9461;SDS011;4769;42.660;23.262;2023-04-01T07:34:11;14.13;;;7.13;;
9461;SDS011;4769;42.660;23.262;2023-04-01T07:36:43;20.00;;;7.25;;
9461;SDS011;4769;42.660;23.262;2023-04-01T07:39:19;12.25;;;6.93;;
9461;SDS011;4769;42.660;23.262;2023-04-01T07:41:55;10.05;;;5.03;;
9461;SDS011;4769;42.660;23.262;2023-04-01T07:44:31;9.70;;;5.13;;
9461;SDS011;4769;42.660;23.262;2023-04-01T07:47:22;9.07;;;5.47;;
9461;SDS011;4769;42.660;23.262;2023-04-01T07:50:08;12.50;;;5.43;;
9461;SDS011;4769;42.660;23.262;2023-04-01T07:52:40;11.60;;;5.45;;
9461;SDS011;4769;42.660;23.262;2023-04-01T07:55:14;14.38;;;6.05;;
9461;SDS011;4769;42.660;23.262;2023-04-01T07:57:46;15.35;;;6.15;;
9461;SDS011;4769;42.660;23.262;2023-04-01T08:00:19;12.48;;;6.25;;
9461;SDS011;4769;42.660;23.262;2023-04-01T08:03:01;19.10;;;8.60;;
9461;SDS011;4769;42.660;23.262;2023-04-01T08:05:37;11.65;;;6.22;;
9461;SDS011;4769;42.660;23.262;2023-04-01T08:08:12;13.82;;;5.88;;
9461;SDS011;4769;42.660;23.262;2023-04-01T08:10:49;15.88;;;6.65;;
9461;SDS011;4769;42.660;23.262;2023-04-01T08:13:23;13.05;;;6.10;;
9461;SDS011;4769;42.660;23.262;2023-04-01T08:16:02;11.48;;;6.03;;
9461;SDS011;4769;42.660;23.262;2023-04-01T08:18:40;11.98;;;6.25;;
9461;SDS011;4769;42.660;23.262;2023-04-01T08:21:12;15.20;;;5.18;;
9461;SDS011;4769;42.660;23.262;2023-04-01T08:23:43;15.07;;;6.28;;
9461;SDS011;4769;42.660;23.262;2023-04-01T08:26:12;11.45;;;6.43;;
9461;SDS011;4769;42.660;23.262;2023-04-01T08:28:46;14.10;;;5.68;;
9461;SDS011;4769;42.660;23.262;2023-04-01T08:31:18;11.52;;;6.18;;
9461;SDS011;4769;42.660;23.262;2023-04-01T08:33:54;12.68;;;6.05;;
9461;SDS011;4769;42.660;23.262;2023-04-01T08:36:23;14.98;;;7.43;;
9461;SDS011;4769;42.660;23.262;2023-04-01T08:38:57;15.05;;;7.70;;
9461;SDS011;4769;42.660;23.262;2023-04-01T08:47:37;13.02;;;5.45;;
9461;SDS011;4769;42.660;23.262;2023-04-01T08:53:03;13.20;;;6.18;;
9461;SDS011;4769;42.660;23.262;2023-04-01T08:55:37;16.80;;;6.55;;
9461;SDS011;4769;42.660;23.262;2023-04-01T09:01:58;13.05;;;5.45;;
9461;SDS011;4769;42.660;23.262;2023-04-01T09:05:02;12.57;;;6.97;;
9461;SDS011;4769;42.660;23.262;2023-04-01T09:07:52;15.43;;;8.38;;
9461;SDS011;4769;42.660;23.262;2023-04-01T09:10:35;9.70;;;5.82;;
9461;SDS011;4769;42.660;23.262;2023-04-01T09:13:18;10.05;;;5.35;;
9461;SDS011;4769;42.660;23.262;2023-04-01T09:16:11;14.73;;;5.75;;
9461;SDS011;4769;42.660;23.262;2023-04-01T09:18:49;12.65;;;4.78;;
9461;SDS011;4769;42.660;23.262;2023-04-01T09:21:37;12.05;;;5.10;;
9461;SDS011;4769;42.660;23.262;2023-04-01T09:27:28;8.18;;;3.90;;
9461;SDS011;4769;42.660;23.262;2023-04-01T09:36:12;7.50;;;3.10;;
9461;SDS011;4769;42.660;23.262;2023-04-01T09:38:54;9.25;;;2.97;;
9461;SDS011;4769;42.660;23.262;2023-04-01T09:41:27;8.00;;;2.97;;
9461;SDS011;4769;42.660;23.262;2023-04-01T09:47:00;9.50;;;3.47;;
9461;SDS011;4769;42.660;23.262;2023-04-01T09:49:42;6.32;;;2.40;;
9461;SDS011;4769;42.660;23.262;2023-04-01T09:52:24;9.30;;;2.60;;
9461;SDS011;4769;42.660;23.262;2023-04-01T09:55:14;8.98;;;3.08;;
9461;SDS011;4769;42.660;23.262;2023-04-01T10:19:38;7.28;;;3.70;;
9461;SDS011;4769;42.660;23.262;2023-04-01T10:22:35;10.55;;;4.20;;
9461;SDS011;4769;42.660;23.262;2023-04-01T10:25:26;7.93;;;3.60;;
9461;SDS011;4769;42.660;23.262;2023-04-01T10:28:09;10.77;;;2.80;;
9461;SDS011;4769;42.660;23.262;2023-04-01T10:36:53;6.45;;;2.50;;
9461;SDS011;4769;42.660;23.262;2023-04-01T10:42:25;5.97;;;2.90;;
9461;SDS011;4769;42.660;23.262;2023-04-01T10:51:37;5.43;;;2.30;;
9461;SDS011;4769;42.660;23.262;2023-04-01T10:54:33;8.25;;;2.63;;
9461;SDS011;4769;42.660;23.262;2023-04-01T10:57:15;7.68;;;2.30;;
9461;SDS011;4769;42.660;23.262;2023-04-01T11:03:09;5.22;;;2.30;;
9461;SDS011;4769;42.660;23.262;2023-04-01T11:09:05;8.18;;;2.58;;
9461;SDS011;4769;42.660;23.262;2023-04-01T11:12:01;7.47;;;2.80;;
9461;SDS011;4769;42.660;23.262;2023-04-01T11:21:01;6.65;;;2.20;;
9461;SDS011;4769;42.660;23.262;2023-04-01T11:24:00;6.57;;;2.50;;
9461;SDS011;4769;42.660;23.262;2023-04-01T11:26:52;6.25;;;2.60;;
9461;SDS011;4769;42.660;23.262;2023-04-01T11:32:30;7.03;;;2.90;;
9461;SDS011;4769;42.660;23.262;2023-04-01T11:38:07;5.57;;;2.90;;
9461;SDS011;4769;42.660;23.262;2023-04-01T11:40:45;6.18;;;2.67;;
9461;SDS011;4769;42.660;23.262;2023-04-01T11:43:24;8.07;;;3.47;;
9461;SDS011;4769;42.660;23.262;2023-04-01T11:45:58;6.88;;;3.60;;
9461;SDS011;4769;42.660;23.262;2023-04-01T11:48:35;6.45;;;3.22;;
9461;SDS011;4769;42.660;23.262;2023-04-01T11:54:03;7.67;;;3.50;;
9461;SDS011;4769;42.660;23.262;2023-04-01T11:56:48;8.50;;;4.17;;
9461;SDS011;4769;42.660;23.262;2023-04-01T12:02:33;7.50;;;3.60;;
9461;SDS011;4769;42.660;23.262;2023-04-01T12:05:21;8.23;;;3.90;;
9461;SDS011;4769;42.660;23.262;2023-04-01T12:08:00;7.37;;;4.20;;
9461;SDS011;4769;42.660;23.262;2023-04-01T12:10:38;7.00;;;4.00;;
9461;SDS011;4769;42.660;23.262;2023-04-01T12:13:09;9.93;;;5.03;;
9461;SDS011;4769;42.660;23.262;2023-04-01T12:15:56;7.93;;;4.50;;
9461;SDS011;4769;42.660;23.262;2023-04-01T12:18:38;12.30;;;5.93;;
9461;SDS011;4769;42.660;23.262;2023-04-01T12:21:20;8.00;;;4.10;;
9461;SDS011;4769;42.660;23.262;2023-04-01T12:26:59;7.00;;;4.10;;
9461;SDS011;4769;42.660;23.262;2023-04-01T12:29:39;8.70;;;3.40;;
9461;SDS011;4769;42.660;23.262;2023-04-01T12:32:35;13.93;;;7.40;;
9461;SDS011;4769;42.660;23.262;2023-04-01T12:35:13;11.67;;;7.83;;
9461;SDS011;4769;42.660;23.262;2023-04-01T12:37:45;14.80;;;7.57;;
9461;SDS011;4769;42.660;23.262;2023-04-01T12:40:24;8.67;;;6.80;;
9461;SDS011;4769;42.660;23.262;2023-04-01T12:43:07;7.50;;;4.77;;
9461;SDS011;4769;42.660;23.262;2023-04-01T12:45:53;9.47;;;5.17;;
9461;SDS011;4769;42.660;23.262;2023-04-01T12:48:31;10.67;;;4.70;;
9461;SDS011;4769;42.660;23.262;2023-04-01T12:54:48;10.30;;;5.50;;
9461;SDS011;4769;42.660;23.262;2023-04-01T12:57:59;8.63;;;4.53;;
9461;SDS011;4769;42.660;23.262;2023-04-01T13:00:43;8.27;;;4.67;;
9461;SDS011;4769;42.660;23.262;2023-04-01T13:03:22;5.03;;;3.30;;
9461;SDS011;4769;42.660;23.262;2023-04-01T13:08:56;7.03;;;2.60;;
9461;SDS011;4769;42.660;23.262;2023-04-01T13:11:34;3.30;;;2.07;;
9461;SDS011;4769;42.660;23.262;2023-04-01T13:14:13;6.03;;;3.80;;
9461;SDS011;4769;42.660;23.262;2023-04-01T13:16:52;4.20;;;3.47;;
9461;SDS011;4769;42.660;23.262;2023-04-01T13:19:27;6.37;;;3.17;;
9461;SDS011;4769;42.660;23.262;2023-04-01T13:22:01;3.87;;;2.23;;
9461;SDS011;4769;42.660;23.262;2023-04-01T13:24:36;3.80;;;2.33;;
9461;SDS011;4769;42.660;23.262;2023-04-01T13:27:09;2.27;;;1.70;;
9461;SDS011;4769;42.660;23.262;2023-04-01T13:29:43;2.67;;;1.50;;
9461;SDS011;4769;42.660;23.262;2023-04-01T13:32:19;3.37;;;2.00;;
9461;SDS011;4769;42.660;23.262;2023-04-01T13:35:04;1.48;;;1.30;;
9461;SDS011;4769;42.660;23.262;2023-04-01T13:37:45;2.45;;;1.90;;
9461;SDS011;4769;42.660;23.262;2023-04-01T13:40:32;1.70;;;1.50;;
9461;SDS011;4769;42.660;23.262;2023-04-01T13:43:02;2.75;;;1.35;;
9461;SDS011;4769;42.660;23.262;2023-04-01T13:45:38;2.45;;;1.40;;
9461;SDS011;4769;42.660;23.262;2023-04-01T13:51:13;1.70;;;1.38;;
9461;SDS011;4769;42.660;23.262;2023-04-01T13:56:49;2.03;;;1.38;;
9461;SDS011;4769;42.660;23.262;2023-04-01T13:59:36;3.65;;;1.60;;
9461;SDS011;4769;42.660;23.262;2023-04-01T14:08:20;3.22;;;1.63;;
9461;SDS011;4769;42.660;23.262;2023-04-01T14:11:02;3.63;;;1.63;;
9461;SDS011;4769;42.660;23.262;2023-04-01T14:13:40;2.25;;;1.27;;
9461;SDS011;4769;42.660;23.262;2023-04-01T14:16:26;2.95;;;1.35;;
9461;SDS011;4769;42.660;23.262;2023-04-01T14:19:22;2.88;;;1.50;;
9461;SDS011;4769;42.660;23.262;2023-04-01T14:21:58;1.52;;;1.42;;
9461;SDS011;4769;42.660;23.262;2023-04-01T14:24:45;3.22;;;1.70;;
9461;SDS011;4769;42.660;23.262;2023-04-01T14:27:39;2.45;;;1.33;;
9461;SDS011;4769;42.660;23.262;2023-04-01T14:33:17;2.63;;;1.40;;
9461;SDS011;4769;42.660;23.262;2023-04-01T14:35:58;2.58;;;1.27;;
9461;SDS011;4769;42.660;23.262;2023-04-01T14:38:43;1.45;;;1.35;;
9461;SDS011;4769;42.660;23.262;2023-04-01T14:41:27;1.92;;;1.27;;
9461;SDS011;4769;42.660;23.262;2023-04-01T14:44:13;1.48;;;1.25;;
9461;SDS011;4769;42.660;23.262;2023-04-01T14:46:56;3.33;;;1.63;;
9461;SDS011;4769;42.660;23.262;2023-04-01T14:49:35;5.03;;;1.50;;
9461;SDS011;4769;42.660;23.262;2023-04-01T14:52:04;2.03;;;1.50;;
9461;SDS011;4769;42.660;23.262;2023-04-01T14:54:36;2.80;;;1.17;;
9461;SDS011;4769;42.660;23.262;2023-04-01T14:57:09;2.72;;;1.35;;
9461;SDS011;4769;42.660;23.262;2023-04-01T14:59:39;2.65;;;1.38;;
9461;SDS011;4769;42.660;23.262;2023-04-01T15:02:09;2.30;;;1.45;;
9461;SDS011;4769;42.660;23.262;2023-04-01T15:04:54;3.20;;;2.03;;
9461;SDS011;4769;42.660;23.262;2023-04-01T15:07:34;4.55;;;2.22;;
9461;SDS011;4769;42.660;23.262;2023-04-01T15:10:12;3.03;;;1.88;;
9461;SDS011;4769;42.660;23.262;2023-04-01T15:12:59;2.53;;;1.40;;
9461;SDS011;4769;42.660;23.262;2023-04-01T15:15:39;5.13;;;2.08;;
9461;SDS011;4769;42.660;23.262;2023-04-01T15:18:25;3.22;;;1.63;;
9461;SDS011;4769;42.660;23.262;2023-04-01T15:21:05;4.25;;;2.35;;
9461;SDS011;4769;42.660;23.262;2023-04-01T15:23:45;3.97;;;2.03;;
9461;SDS011;4769;42.660;23.262;2023-04-01T15:26:22;5.28;;;3.42;;
9461;SDS011;4769;42.660;23.262;2023-04-01T15:29:06;3.00;;;2.40;;
9461;SDS011;4769;42.660;23.262;2023-04-01T15:31:44;3.55;;;1.58;;
9461;SDS011;4769;42.660;23.262;2023-04-01T15:34:17;3.50;;;1.80;;
9461;SDS011;4769;42.660;23.262;2023-04-01T15:36:53;3.80;;;1.80;;
9461;SDS011;4769;42.660;23.262;2023-04-01T15:39:28;3.33;;;1.67;;
9461;SDS011;4769;42.660;23.262;2023-04-01T15:42:14;4.03;;;2.00;;
9461;SDS011;4769;42.660;23.262;2023-04-01T15:44:58;3.22;;;1.75;;
9461;SDS011;4769;42.660;23.262;2023-04-01T15:47:35;11.52;;;3.33;;
9461;SDS011;4769;42.660;23.262;2023-04-01T15:53:16;2.93;;;1.20;;
9461;SDS011;4769;42.660;23.262;2023-04-01T15:55:58;2.60;;;1.60;;
9461;SDS011;4769;42.660;23.262;2023-04-01T15:58:41;4.47;;;2.10;;
9461;SDS011;4769;42.660;23.262;2023-04-01T16:01:26;6.10;;;2.83;;
9461;SDS011;4769;42.660;23.262;2023-04-01T16:04:04;5.63;;;2.63;;
9461;SDS011;4769;42.660;23.262;2023-04-01T16:06:48;9.83;;;4.10;;
9461;SDS011;4769;42.660;23.262;2023-04-01T16:09:30;8.87;;;5.03;;
9461;SDS011;4769;42.660;23.262;2023-04-01T16:12:11;6.23;;;4.40;;
9461;SDS011;4769;42.660;23.262;2023-04-01T16:14:45;2.53;;;2.30;;
9461;SDS011;4769;42.660;23.262;2023-04-01T16:17:29;7.00;;;6.40;;
9461;SDS011;4769;42.660;23.262;2023-04-01T16:20:06;2.83;;;2.27;;
9461;SDS011;4769;42.660;23.262;2023-04-01T16:22:45;2.47;;;2.27;;
9461;SDS011;4769;42.660;23.262;2023-04-01T16:25:20;4.90;;;4.40;;
9461;SDS011;4769;42.660;23.262;2023-04-01T16:27:53;3.00;;;2.37;;
9461;SDS011;4769;42.660;23.262;2023-04-01T16:30:33;2.07;;;1.80;;
9461;SDS011;4769;42.660;23.262;2023-04-01T16:33:04;1.90;;;1.80;;
9461;SDS011;4769;42.660;23.262;2023-04-01T16:35:41;3.80;;;2.60;;
9461;SDS011;4769;42.660;23.262;2023-04-01T16:38:15;3.17;;;2.10;;
9461;SDS011;4769;42.660;23.262;2023-04-01T16:40:50;2.10;;;1.90;;
9461;SDS011;4769;42.660;23.262;2023-04-01T16:43:26;2.20;;;2.00;;
9461;SDS011;4769;42.660;23.262;2023-04-01T16:45:59;2.87;;;2.33;;
9461;SDS011;4769;42.660;23.262;2023-04-01T16:48:54;2.13;;;1.87;;
9461;SDS011;4769;42.660;23.262;2023-04-01T16:51:24;2.30;;;2.10;;
9461;SDS011;4769;42.660;23.262;2023-04-01T16:53:52;1.90;;;1.70;;
9461;SDS011;4769;42.660;23.262;2023-04-01T16:56:36;1.70;;;1.60;;
9461;SDS011;4769;42.660;23.262;2023-04-01T16:59:07;1.23;;;1.10;;
9461;SDS011;4769;42.660;23.262;2023-04-01T17:01:40;1.70;;;1.30;;
9461;SDS011;4769;42.660;23.262;2023-04-01T17:04:17;3.63;;;2.60;;
9461;SDS011;4769;42.660;23.262;2023-04-01T17:06:49;2.27;;;1.70;;
9461;SDS011;4769;42.660;23.262;2023-04-01T17:12:08;1.73;;;1.63;;
9461;SDS011;4769;42.660;23.262;2023-04-01T17:14:44;3.60;;;2.40;;
9461;SDS011;4769;42.660;23.262;2023-04-01T17:17:18;2.50;;;2.30;;
9461;SDS011;4769;42.660;23.262;2023-04-01T17:23:04;2.03;;;1.80;;
9461;SDS011;4769;42.660;23.262;2023-04-01T17:25:39;3.37;;;2.60;;
9461;SDS011;4769;42.660;23.262;2023-04-01T17:28:17;2.90;;;2.57;;
9461;SDS011;4769;42.660;23.262;2023-04-01T17:30:55;2.90;;;2.70;;
9461;SDS011;4769;42.660;23.262;2023-04-01T17:33:36;3.13;;;2.93;;
9461;SDS011;4769;42.660;23.262;2023-04-01T17:36:24;3.17;;;2.87;;
9461;SDS011;4769;42.660;23.262;2023-04-01T17:39:27;3.70;;;3.40;;
9461;SDS011;4769;42.660;23.262;2023-04-01T17:42:05;3.17;;;2.87;;
9461;SDS011;4769;42.660;23.262;2023-04-01T17:44:38;3.77;;;2.80;;
9461;SDS011;4769;42.660;23.262;2023-04-01T17:47:16;2.73;;;2.47;;